Time;durP1;ratioP1;P1;durP2;ratioP2;P2;SDS_P1;SDS_P2;PMS_P1;PMS_P2;Temp;Humidity;BMP_temperature;BMP_pressure;BME280_temperature;BME280_humidity;BME280_pressure;Samples;Min_cycle;Max_cycle;Signal;HPM_P1;HPM_P2
2022/08/07 00:01:18;;;;;;;1.40;0.80;;;;;;;;;;5018271;28;20056;-82
2022/08/07 00:03:44;;;;;;;1.95;1.23;;;;;;;;;;5017919;28;20018;-82
2022/08/07 00:06:09;;;;;;;3.92;1.30;;;;;;;;;;5018292;28;20090;-82
2022/08/07 00:08:35;;;;;;;1.13;1.00;;;;;;;;;;5035334;28;20029;-82
2022/08/07 00:11:02;;;;;;;4.80;0.90;;;;;;;;;;5041592;28;20021;-82
2022/08/07 00:13:27;;;;;;;4.03;1.27;;;;;;;;;;5038080;28;20032;-81
2022/08/07 00:15:53;;;;;;;2.28;1.35;;;;;;;;;;5053660;28;20036;-82
2022/08/07 00:18:22;;;;;;;0.90;0.90;;;;;;;;;;5055672;28;20028;-82
2022/08/07 00:20:50;;;;;;;2.08;1.00;;;;;;;;;;5030244;28;20039;-82
2022/08/07 00:23:16;;;;;;;4.45;1.00;;;;;;;;;;5035563;28;20013;-82
2022/08/07 00:25:41;;;;;;;1.77;0.90;;;;;;;;;;5035438;28;20060;-82
2022/08/07 00:28:07;;;;;;;1.92;1.10;;;;;;;;;;5034856;28;20021;-82
2022/08/07 00:30:33;;;;;;;1.17;1.08;;;;;;;;;;5033243;28;20033;-82
2022/08/07 00:32:59;;;;;;;0.60;0.60;;;;;;;;;;5035446;28;20112;-81
2022/08/07 00:35:26;;;;;;;1.02;0.82;;;;;;;;;;5037355;28;20029;-81
2022/08/07 00:37:51;;;;;;;0.73;0.73;;;;;;;;;;5016824;28;20067;-81
2022/08/07 00:40:17;;;;;;;3.42;0.95;;;;;;;;;;5021907;28;20033;-81
2022/08/07 00:42:43;;;;;;;1.10;1.00;;;;;;;;;;5034311;28;20025;-82
2022/08/07 00:45:10;;;;;;;1.05;0.80;;;;;;;;;;5017421;28;20056;-82
2022/08/07 00:47:35;;;;;;;1.33;0.85;;;;;;;;;;5029229;28;20495;-81
2022/08/07 00:50:01;;;;;;;1.95;0.88;;;;;;;;;;5032585;28;20116;-81
2022/08/07 00:52:26;;;;;;;1.60;1.27;;;;;;;;;;5033118;28;20025;-81
2022/08/07 00:54:52;;;;;;;0.63;0.63;;;;;;;;;;5035017;28;20471;-81
2022/08/07 00:57:18;;;;;;;1.13;1.00;;;;;;;;;;5032932;28;20092;-82
2022/08/07 00:59:43;;;;;;;0.70;0.70;;;;;;;;;;5033455;28;20472;-82
2022/08/07 01:02:10;;;;;;;1.85;0.90;;;;;;;;;;5017065;28;20029;-82
2022/08/07 01:04:37;;;;;;;5.00;3.33;;;;;;;;;;5035874;28;20091;-84
2022/08/07 01:07:03;;;;;;;0.82;0.82;;;;;;;;;;5037610;28;20106;-83
2022/08/07 01:09:28;;;;;;;1.38;1.20;;;;;;;;;;5038259;28;20499;-84
2022/08/07 01:11:54;;;;;;;1.35;1.00;;;;;;;;;;5051071;28;20044;-84
2022/08/07 01:14:20;;;;;;;3.22;1.10;;;;;;;;;;5058002;28;20025;-84
2022/08/07 01:16:46;;;;;;;0.82;0.80;;;;;;;;;;5058133;28;20044;-82
2022/08/07 01:19:12;;;;;;;2.53;0.82;;;;;;;;;;5040725;28;20024;-85
2022/08/07 01:21:38;;;;;;;1.63;1.00;;;;;;;;;;5027153;28;20041;-84
2022/08/07 01:24:04;;;;;;;1.85;0.90;;;;;;;;;;5038309;28;20048;-83
2022/08/07 01:26:30;;;;;;;1.55;1.10;;;;;;;;;;5037566;28;20025;-82
2022/08/07 01:28:55;;;;;;;1.00;1.00;;;;;;;;;;5036770;28;20044;-83
2022/08/07 01:31:26;;;;;;;1.15;1.10;;;;;;;;;;5037369;28;20069;-84
2022/08/07 01:33:52;;;;;;;1.00;1.00;;;;;;;;;;5036733;28;20018;-84
2022/08/07 01:36:17;;;;;;;1.55;1.00;;;;;;;;;;5038250;28;20025;-83
2022/08/07 01:38:43;;;;;;;1.98;1.33;;;;;;;;;;5038539;28;20029;-84
2022/08/07 01:41:09;;;;;;;6.93;1.00;;;;;;;;;;5019647;28;20044;-85
2022/08/07 01:43:35;;;;;;;5.53;1.27;;;;;;;;;;5037355;28;20026;-85
2022/08/07 01:46:01;;;;;;;5.45;1.50;;;;;;;;;;5037674;28;20080;-84
2022/08/07 01:48:27;;;;;;;1.52;1.10;;;;;;;;;;5019222;28;20087;-86
2022/08/07 01:50:57;;;;;;;2.47;1.00;;;;;;;;;;5036330;28;20029;-85
2022/08/07 01:53:25;;;;;;;1.85;1.00;;;;;;;;;;5037788;28;20036;-84
2022/08/07 01:55:57;;;;;;;0.98;0.98;;;;;;;;;;5020181;28;20387;-87
2022/08/07 01:58:29;;;;;;;1.13;1.00;;;;;;;;;;5036046;28;20032;-83
2022/08/07 02:01:00;;;;;;;2.38;1.02;;;;;;;;;;5029741;28;20088;-85
2022/08/07 02:03:26;;;;;;;1.20;0.98;;;;;;;;;;5021081;28;20024;-86
2022/08/07 02:05:55;;;;;;;3.80;0.93;;;;;;;;;;5039155;28;20033;-86
2022/08/07 02:08:23;;;;;;;0.70;0.70;;;;;;;;;;5038313;28;20479;-86
2022/08/07 02:10:52;;;;;;;0.93;0.90;;;;;;;;;;5024331;28;20075;-86
2022/08/07 02:13:21;;;;;;;1.75;0.82;;;;;;;;;;5040131;28;20025;-85
2022/08/07 02:15:48;;;;;;;0.70;0.70;;;;;;;;;;5058662;28;20037;-86
2022/08/07 02:18:15;;;;;;;1.00;0.98;;;;;;;;;;5058554;28;20025;-84
2022/08/07 02:20:42;;;;;;;3.03;0.82;;;;;;;;;;5037568;28;20021;-87
2022/08/07 02:23:09;;;;;;;1.77;1.10;;;;;;;;;;5019476;28;20067;-85
2022/08/07 02:25:37;;;;;;;1.42;1.10;;;;;;;;;;5038608;28;20021;-86
2022/08/07 02:28:03;;;;;;;1.67;1.10;;;;;;;;;;5037458;28;20025;-85
2022/08/07 02:30:29;;;;;;;0.90;0.90;;;;;;;;;;5037745;28;20025;-85
2022/08/07 02:32:56;;;;;;;4.90;1.00;;;;;;;;;;5040850;28;20025;-84
2022/08/07 02:35:24;;;;;;;1.08;1.00;;;;;;;;;;5030822;28;20075;-85
2022/08/07 02:37:50;;;;;;;5.20;1.02;;;;;;;;;;5038567;28;20037;-85
2022/08/07 02:40:16;;;;;;;2.03;0.90;;;;;;;;;;5024313;28;20116;-85
2022/08/07 02:42:42;;;;;;;1.38;0.90;;;;;;;;;;5043385;28;20052;-85
2022/08/07 02:45:11;;;;;;;1.73;1.40;;;;;;;;;;5024593;28;20025;-85
2022/08/07 02:47:37;;;;;;;2.15;1.00;;;;;;;;;;5042426;28;20021;-84
2022/08/07 02:50:04;;;;;;;3.83;1.08;;;;;;;;;;5039384;28;20056;-85
2022/08/07 02:52:33;;;;;;;1.67;1.00;;;;;;;;;;5024675;28;20017;-85
2022/08/07 02:55:08;;;;;;;2.75;1.73;;;;;;;;;;5043233;28;20025;-85
2022/08/07 02:57:36;;;;;;;1.90;1.20;;;;;;;;;;5024447;28;20030;-85
2022/08/07 03:00:04;;;;;;;0.98;0.98;;;;;;;;;;5023559;28;20046;-85
2022/08/07 03:02:30;;;;;;;0.90;0.90;;;;;;;;;;5042005;28;20040;-85
2022/08/07 03:04:57;;;;;;;2.67;1.00;;;;;;;;;;5024082;28;20014;-85
2022/08/07 03:07:23;;;;;;;1.02;0.90;;;;;;;;;;5040627;28;20460;-85
2022/08/07 03:09:48;;;;;;;1.75;0.80;;;;;;;;;;5041286;28;20083;-84
2022/08/07 03:12:14;;;;;;;1.27;0.95;;;;;;;;;;5053239;28;20037;-85
2022/08/07 03:14:41;;;;;;;1.17;0.93;;;;;;;;;;5040630;28;20395;-85
2022/08/07 03:17:07;;;;;;;2.25;0.90;;;;;;;;;;5040602;28;20030;-84
2022/08/07 03:19:34;;;;;;;0.80;0.80;;;;;;;;;;5041533;28;20026;-84
2022/08/07 03:22:00;;;;;;;1.13;0.85;;;;;;;;;;5040957;28;20100;-83
2022/08/07 03:24:26;;;;;;;2.60;1.05;;;;;;;;;;5041234;28;20057;-84
2022/08/07 03:26:52;;;;;;;1.00;1.00;;;;;;;;;;5022325;28;20036;-84
2022/08/07 03:29:18;;;;;;;1.30;1.20;;;;;;;;;;5041266;28;20025;-84
2022/08/07 03:31:46;;;;;;;1.38;1.02;;;;;;;;;;5040605;28;20026;-83
2022/08/07 03:34:13;;;;;;;1.23;0.90;;;;;;;;;;5023288;28;20022;-85
2022/08/07 03:36:39;;;;;;;1.13;1.00;;;;;;;;;;5039927;28;20025;-82
2022/08/07 03:39:08;;;;;;;1.23;0.95;;;;;;;;;;5023186;28;20029;-85
2022/08/07 03:41:34;;;;;;;1.17;0.82;;;;;;;;;;5041028;28;20515;-85
2022/08/07 03:44:00;;;;;;;1.38;1.05;;;;;;;;;;5022328;28;20018;-83
2022/08/07 03:46:27;;;;;;;1.70;1.13;;;;;;;;;;5022641;28;20040;-85
2022/08/07 03:48:53;;;;;;;0.80;0.80;;;;;;;;;;5037660;28;20022;-84
2022/08/07 03:51:20;;;;;;;3.65;1.13;;;;;;;;;;5039962;28;20063;-85
2022/08/07 03:53:47;;;;;;;1.00;0.95;;;;;;;;;;5022493;28;20072;-84
2022/08/07 03:56:18;;;;;;;2.25;1.20;;;;;;;;;;5040242;28;20511;-85
2022/08/07 03:58:44;;;;;;;1.38;0.90;;;;;;;;;;5020609;28;20033;-84
2022/08/07 04:01:10;;;;;;;1.85;0.90;;;;;;;;;;5039975;28;20490;-85
2022/08/07 04:03:36;;;;;;;1.45;1.30;;;;;;;;;;5039672;28;20156;-82
2022/08/07 04:06:01;;;;;;;2.65;1.10;;;;;;;;;;5036332;28;20045;-82
2022/08/07 04:08:28;;;;;;;0.85;0.85;;;;;;;;;;5036329;28;20041;-83
2022/08/07 04:10:53;;;;;;;4.13;1.20;;;;;;;;;;5042161;28;20020;-83
2022/08/07 04:13:21;;;;;;;0.82;0.82;;;;;;;;;;5058519;28;20025;-84
2022/08/07 04:15:47;;;;;;;1.10;1.00;;;;;;;;;;5040196;28;20032;-84
2022/08/07 04:18:14;;;;;;;1.27;1.20;;;;;;;;;;5041088;28;20031;-85
2022/08/07 04:20:39;;;;;;;1.30;1.20;;;;;;;;;;5051243;28;20154;-84
2022/08/07 04:23:06;;;;;;;1.45;1.27;;;;;;;;;;5037261;28;20036;-83
2022/08/07 04:25:32;;;;;;;1.77;1.08;;;;;;;;;;5037131;28;20045;-85
2022/08/07 04:27:58;;;;;;;1.17;1.15;;;;;;;;;;5019719;28;20037;-82
2022/08/07 04:30:24;;;;;;;1.00;0.93;;;;;;;;;;5035919;28;20024;-85
2022/08/07 04:32:49;;;;;;;1.20;1.10;;;;;;;;;;5047691;28;20025;-83
2022/08/07 04:35:15;;;;;;;2.17;1.00;;;;;;;;;;5035342;28;20056;-83
2022/08/07 04:37:40;;;;;;;3.88;1.15;;;;;;;;;;5037577;28;20073;-83
2022/08/07 04:40:06;;;;;;;0.98;0.98;;;;;;;;;;5038260;28;20025;-84
2022/08/07 04:42:33;;;;;;;1.30;1.20;;;;;;;;;;5018254;28;20543;-81
2022/08/07 04:45:01;;;;;;;4.32;0.93;;;;;;;;;;5035592;28;20022;-82
2022/08/07 04:47:58;;;;;;;1.15;1.08;;;;;;;;;;5034545;28;20022;-81
2022/08/07 04:51:06;;;;;;;3.70;1.55;;;;;;;;;;5034076;28;20029;-82
2022/08/07 04:53:56;;;;;;;1.58;1.17;;;;;;;;;;5034920;28;20035;-81
2022/08/07 04:56:36;;;;;;;1.23;1.10;;;;;;;;;;5035234;28;20068;-81
2022/08/07 04:59:10;;;;;;;1.27;1.17;;;;;;;;;;5033718;28;20095;-82
2022/08/07 05:01:43;;;;;;;1.20;1.10;;;;;;;;;;5016256;28;20041;-80
2022/08/07 05:04:15;;;;;;;1.67;1.27;;;;;;;;;;5017452;28;20017;-82
2022/08/07 05:06:40;;;;;;;1.50;1.23;;;;;;;;;;5032919;28;20035;-82
2022/08/07 05:09:24;;;;;;;1.50;1.15;;;;;;;;;;5035246;28;20120;-83
2022/08/07 05:11:52;;;;;;;8.25;1.08;;;;;;;;;;5029773;28;20032;-80
2022/08/07 05:14:24;;;;;;;1.33;1.20;;;;;;;;;;5054890;28;20017;-82
2022/08/07 05:16:52;;;;;;;2.35;1.30;;;;;;;;;;5036250;28;20078;-82
2022/08/07 05:19:20;;;;;;;1.27;1.08;;;;;;;;;;5055314;28;20372;-81
2022/08/07 05:21:54;;;;;;;2.70;1.15;;;;;;;;;;5047793;28;20479;-82
2022/08/07 05:24:22;;;;;;;1.40;1.30;;;;;;;;;;5034860;28;20029;-81
2022/08/07 05:26:52;;;;;;;2.25;0.90;;;;;;;;;;5034234;28;20485;-81
2022/08/07 05:29:20;;;;;;;1.30;1.08;;;;;;;;;;5036874;28;20067;-81
2022/08/07 05:31:46;;;;;;;1.65;1.23;;;;;;;;;;5034472;28;20083;-82
2022/08/07 05:34:15;;;;;;;1.55;1.20;;;;;;;;;;5034744;28;20075;-81
2022/08/07 05:36:47;;;;;;;4.28;1.13;;;;;;;;;;5032947;28;20029;-82
2022/08/07 05:39:13;;;;;;;;;;;;;;;;;;5036139;28;20085;-81
2022/08/07 05:41:41;;;;;;;4.03;1.42;;;;;;;;;;5033863;28;19909;-82
2022/08/07 05:44:09;;;;;;;1.63;1.30;;;;;;;;;;5035129;28;20131;-82
2022/08/07 05:46:36;;;;;;;1.00;1.00;;;;;;;;;;5034237;28;20546;-82
2022/08/07 05:49:05;;;;;;;3.45;1.40;;;;;;;;;;5033556;28;20029;-82
2022/08/07 05:51:30;;;;;;;2.75;1.30;;;;;;;;;;5017080;28;20030;-81
2022/08/07 05:53:55;;;;;;;1.98;1.50;;;;;;;;;;5034289;28;20017;-82
2022/08/07 05:56:21;;;;;;;2.45;1.40;;;;;;;;;;5034150;28;20039;-82
2022/08/07 05:58:48;;;;;;;2.60;1.42;;;;;;;;;;5033084;28;20149;-81
2022/08/07 06:01:15;;;;;;;7.88;1.45;;;;;;;;;;5034513;28;20084;-82
2022/08/07 06:03:45;;;;;;;3.03;1.75;;;;;;;;;;5034625;28;20104;-82
2022/08/07 06:06:11;;;;;;;2.92;1.48;;;;;;;;;;5035042;28;20029;-82
2022/08/07 06:08:40;;;;;;;1.80;1.50;;;;;;;;;;5016192;28;20025;-81
2022/08/07 06:11:06;;;;;;;1.65;1.55;;;;;;;;;;5022688;28;20096;-82
2022/08/07 06:13:31;;;;;;;1.73;1.42;;;;;;;;;;5057474;28;20025;-82
2022/08/07 06:15:58;;;;;;;2.10;1.90;;;;;;;;;;5058770;28;20036;-82
2022/08/07 06:18:24;;;;;;;5.38;1.65;;;;;;;;;;5040416;28;20471;-82
2022/08/07 06:20:52;;;;;;;1.85;1.25;;;;;;;;;;5040520;28;20025;-82
2022/08/07 06:23:17;;;;;;;2.20;1.85;;;;;;;;;;5022136;28;20018;-82
2022/08/07 06:25:43;;;;;;;2.17;1.70;;;;;;;;;;5021019;28;20032;-82
2022/08/07 06:28:10;;;;;;;2.03;1.38;;;;;;;;;;5036802;28;20484;-82
2022/08/07 06:30:37;;;;;;;2.20;1.85;;;;;;;;;;5037014;28;20120;-82
2022/08/07 06:33:03;;;;;;;4.90;1.88;;;;;;;;;;5026372;28;20029;-82
2022/08/07 06:35:29;;;;;;;2.13;1.70;;;;;;;;;;5036721;28;20022;-83
2022/08/07 06:37:55;;;;;;;2.33;1.65;;;;;;;;;;5019855;28;20159;-83
2022/08/07 06:40:21;;;;;;;2.35;1.90;;;;;;;;;;5038449;28;20029;-82
2022/08/07 06:42:48;;;;;;;2.00;1.80;;;;;;;;;;5023184;28;20438;-82
2022/08/07 06:45:19;;;;;;;2.03;1.88;;;;;;;;;;5038429;28;20025;-82
2022/08/07 06:47:46;;;;;;;1.70;1.58;;;;;;;;;;5020019;28;20110;-84
2022/08/07 06:50:12;;;;;;;3.28;1.90;;;;;;;;;;5018712;28;20571;-84
2022/08/07 06:52:41;;;;;;;1.85;1.70;;;;;;;;;;5038433;28;20435;-82
2022/08/07 06:55:14;;;;;;;2.42;1.70;;;;;;;;;;5039000;28;20525;-83
2022/08/07 06:57:42;;;;;;;3.58;2.08;;;;;;;;;;5038441;28;20040;-83
2022/08/07 07:00:08;;;;;;;2.22;1.75;;;;;;;;;;5041012;28;20462;-83
2022/08/07 07:02:35;;;;;;;1.63;1.50;;;;;;;;;;5038490;28;20034;-83
2022/08/07 07:05:01;;;;;;;2.63;1.90;;;;;;;;;;5039784;28;20100;-85
2022/08/07 07:07:27;;;;;;;2.13;1.80;;;;;;;;;;5040622;28;20026;-84
2022/08/07 07:09:52;;;;;;;2.60;1.65;;;;;;;;;;5038130;28;20412;-84
2022/08/07 07:12:36;;;;;;;2.45;1.80;;;;;;;;;;5054153;28;20495;-85
2022/08/07 07:15:19;;;;;;;2.05;1.80;;;;;;;;;;5057843;28;20043;-84
2022/08/07 07:17:53;;;;;;;2.00;1.83;;;;;;;;;;5056798;28;20036;-85
2022/08/07 07:20:24;;;;;;;6.68;1.63;;;;;;;;;;5058739;28;20021;-84
2022/08/07 07:22:51;;;;;;;2.72;1.77;;;;;;;;;;5051616;28;20024;-85
2022/08/07 07:25:18;;;;;;;2.45;1.88;;;;;;;;;;5044010;28;20025;-85
2022/08/07 07:27:59;;;;;;;2.10;1.60;;;;;;;;;;5044013;28;20025;-84
2022/08/07 07:30:28;;;;;;;1.60;1.50;;;;;;;;;;5042579;28;20064;-84
2022/08/07 07:32:57;;;;;;;2.15;1.80;;;;;;;;;;5044386;28;20017;-84
2022/08/07 07:35:24;;;;;;;2.13;1.50;;;;;;;;;;5026571;28;20092;-82
2022/08/07 07:37:51;;;;;;;2.60;1.88;;;;;;;;;;5042686;28;20503;-82
2022/08/07 07:40:19;;;;;;;1.20;1.10;;;;;;;;;;5043379;28;20051;-83
2022/08/07 07:42:46;;;;;;;1.70;1.33;;;;;;;;;;5043991;28;20080;-83
2022/08/07 07:45:15;;;;;;;3.83;1.52;;;;;;;;;;5044303;28;20028;-84
2022/08/07 07:47:42;;;;;;;2.28;1.40;;;;;;;;;;5024398;28;20030;-84
2022/08/07 07:50:11;;;;;;;2.63;1.40;;;;;;;;;;5023684;28;20033;-84
2022/08/07 07:52:38;;;;;;;1.40;1.30;;;;;;;;;;5043112;28;20388;-84
2022/08/07 07:55:05;;;;;;;1.63;1.25;;;;;;;;;;5043616;28;20025;-84
2022/08/07 07:57:33;;;;;;;1.45;1.20;;;;;;;;;;5042262;28;20021;-85
2022/08/07 08:00:00;;;;;;;2.72;1.35;;;;;;;;;;5025546;28;20022;-84
2022/08/07 08:02:27;;;;;;;1.67;1.23;;;;;;;;;;5042738;28;20045;-84
2022/08/07 08:04:55;;;;;;;1.52;1.23;;;;;;;;;;5027281;28;20025;-84
2022/08/07 08:07:21;;;;;;;2.13;1.50;;;;;;;;;;5023401;28;20021;-84
2022/08/07 08:09:49;;;;;;;1.50;1.40;;;;;;;;;;5023273;28;20048;-84
2022/08/07 08:12:15;;;;;;;2.53;1.17;;;;;;;;;;5024021;28;20114;-84
2022/08/07 08:14:41;;;;;;;2.42;1.48;;;;;;;;;;5042621;28;20017;-83
2022/08/07 08:17:09;;;;;;;1.65;1.50;;;;;;;;;;5041412;28;20056;-83
2022/08/07 08:19:36;;;;;;;3.38;1.30;;;;;;;;;;5041873;28;20025;-84
2022/08/07 08:27:35;;;;;;;1.88;1.30;;;;;;;;;;5041312;28;20112;-84
2022/08/07 08:30:07;;;;;;;2.03;1.33;;;;;;;;;;5040198;28;20044;-84
2022/08/07 08:32:39;;;;;;;1.75;1.30;;;;;;;;;;5047005;28;20029;-84
2022/08/07 08:35:08;;;;;;;1.35;1.15;;;;;;;;;;5039995;28;20498;-84
2022/08/07 08:37:35;;;;;;;2.20;1.20;;;;;;;;;;5039354;28;20480;-85
2022/08/07 08:40:05;;;;;;;3.45;1.15;;;;;;;;;;5040230;28;20044;-84
2022/08/07 08:42:38;;;;;;;0.98;0.98;;;;;;;;;;5040808;28;20129;-84
2022/08/07 08:45:16;;;;;;;2.88;0.95;;;;;;;;;;5022500;28;20025;-84
2022/08/07 08:48:03;;;;;;;1.08;1.00;;;;;;;;;;5023717;28;20025;-84
2022/08/07 08:50:32;;;;;;;1.13;0.90;;;;;;;;;;5039486;28;20102;-83
2022/08/07 08:53:09;;;;;;;0.73;0.70;;;;;;;;;;5039729;28;20021;-84
2022/08/07 08:55:48;;;;;;;3.53;0.80;;;;;;;;;;5024218;28;20037;-83
2022/08/07 08:58:25;;;;;;;1.05;0.73;;;;;;;;;;5041260;28;20480;-83
2022/08/07 09:00:57;;;;;;;2.22;0.75;;;;;;;;;;5022123;28;20022;-83
2022/08/07 09:03:30;;;;;;;1.13;0.57;;;;;;;;;;5036122;28;20534;-85
2022/08/07 09:06:07;;;;;;;1.42;0.85;;;;;;;;;;5013163;28;20116;-85
2022/08/07 09:08:57;;;;;;;0.65;0.50;;;;;;;;;;5035875;28;20025;-85
2022/08/07 09:11:44;;;;;;;1.85;0.70;;;;;;;;;;5026659;28;20467;-85
2022/08/07 09:14:19;;;;;;;1.15;0.70;;;;;;;;;;5055713;28;20277;-85
2022/08/07 09:17:06;;;;;;;0.60;0.60;;;;;;;;;;5055659;28;20382;-84
2022/08/07 09:19:51;;;;;;;2.15;0.80;;;;;;;;;;5056677;28;20025;-85
2022/08/07 09:22:47;;;;;;;0.70;0.70;;;;;;;;;;5053052;28;20031;-86
2022/08/07 09:25:24;;;;;;;2.38;0.68;;;;;;;;;;5037635;28;20098;-86
2022/08/07 09:28:02;;;;;;;0.60;0.60;;;;;;;;;;5019584;28;20021;-86
2022/08/07 09:30:55;;;;;;;2.83;0.93;;;;;;;;;;5020713;28;20021;-84
2022/08/07 09:33:47;;;;;;;3.65;0.98;;;;;;;;;;5034641;28;20038;-87
2022/08/07 09:36:28;;;;;;;0.85;0.82;;;;;;;;;;5007660;28;20044;-85
2022/08/07 09:39:17;;;;;;;1.65;0.88;;;;;;;;;;5018825;28;20040;-85
2022/08/07 09:41:46;;;;;;;1.48;0.75;;;;;;;;;;5019969;28;20030;-84
2022/08/07 09:44:46;;;;;;;0.95;0.95;;;;;;;;;;5001462;28;20048;-85
2022/08/07 09:47:22;;;;;;;1.75;0.70;;;;;;;;;;5017995;28;20094;-85
2022/08/07 09:49:58;;;;;;;1.88;0.88;;;;;;;;;;5017765;28;20065;-85
2022/08/07 09:52:39;;;;;;;0.63;0.52;;;;;;;;;;5036957;28;20104;-84
2022/08/07 09:55:07;;;;;;;2.60;0.93;;;;;;;;;;5039675;28;20542;-85
2022/08/07 09:57:51;;;;;;;0.68;0.68;;;;;;;;;;5038686;28;20026;-85
2022/08/07 10:00:22;;;;;;;1.40;0.80;;;;;;;;;;5037758;28;20075;-85
2022/08/07 10:03:09;;;;;;;1.02;0.88;;;;;;;;;;5020749;28;20018;-85
2022/08/07 10:05:37;;;;;;;0.77;0.75;;;;;;;;;;5040767;28;20022;-84
2022/08/07 10:08:36;;;;;;;0.70;0.70;;;;;;;;;;5037851;28;20546;-83
2022/08/07 10:11:10;;;;;;;1.00;0.82;;;;;;;;;;5045688;28;20013;-85
2022/08/07 10:14:07;;;;;;;1.40;0.73;;;;;;;;;;5059895;28;20025;-84
2022/08/07 10:16:51;;;;;;;0.43;0.43;;;;;;;;;;5058557;28;20029;-83
2022/08/07 10:19:19;;;;;;;0.52;0.52;;;;;;;;;;5068415;28;20032;-84
2022/08/07 10:22:14;;;;;;;0.88;0.52;;;;;;;;;;5062208;28;20144;-86
2022/08/07 10:25:02;;;;;;;0.40;0.40;;;;;;;;;;5007968;28;20120;-86
2022/08/07 10:28:02;;;;;;;2.67;0.73;;;;;;;;;;5049909;28;20050;-85
2022/08/07 10:30:52;;;;;;;0.43;0.40;;;;;;;;;;5062305;28;20025;-83
2022/08/07 10:34:00;;;;;;;0.68;0.50;;;;;;;;;;5038028;28;20486;-84
2022/08/07 10:36:32;;;;;;;1.00;0.57;;;;;;;;;;5042721;28;20053;-84
2022/08/07 10:39:17;;;;;;;0.50;0.50;;;;;;;;;;5021978;28;20094;-86
2022/08/07 10:41:56;;;;;;;0.80;0.70;;;;;;;;;;5039620;28;20072;-85
2022/08/07 10:44:55;;;;;;;0.65;0.65;;;;;;;;;;5040014;28;20021;-86
2022/08/07 10:47:35;;;;;;;0.52;0.50;;;;;;;;;;5021229;28;20022;-85
2022/08/07 10:50:00;;;;;;;1.20;0.60;;;;;;;;;;5021874;28;20120;-84
2022/08/07 10:52:51;;;;;;;0.98;0.55;;;;;;;;;;5017501;28;20057;-84
2022/08/07 10:55:22;;;;;;;1.25;0.55;;;;;;;;;;5034919;28;20029;-85
2022/08/07 10:57:47;;;;;;;2.70;0.70;;;;;;;;;;5035179;28;20044;-84
2022/08/07 11:00:17;;;;;;;0.63;0.63;;;;;;;;;;5038131;28;20108;-84
2022/08/07 11:03:03;;;;;;;1.38;0.60;;;;;;;;;;5039190;28;20037;-84
2022/08/07 11:05:43;;;;;;;0.50;0.50;;;;;;;;;;5038792;28;20079;-84
2022/08/07 11:08:18;;;;;;;0.52;0.50;;;;;;;;;;5039788;28;20025;-83
2022/08/07 11:11:06;;;;;;;3.97;0.75;;;;;;;;;;5024183;28;20021;-83
2022/08/07 11:13:44;;;;;;;0.50;0.50;;;;;;;;;;5058021;28;20372;-83
2022/08/07 11:16:18;;;;;;;1.27;0.63;;;;;;;;;;5042390;28;20120;-84
2022/08/07 11:18:57;;;;;;;7.43;0.98;;;;;;;;;;5041143;28;20025;-84
2022/08/07 11:21:36;;;;;;;2.13;0.80;;;;;;;;;;5059184;28;20021;-84
2022/08/07 11:24:15;;;;;;;0.52;0.52;;;;;;;;;;5042726;28;20018;-84
2022/08/07 11:26:48;;;;;;;0.85;0.57;;;;;;;;;;5043862;28;20029;-83
2022/08/07 11:29:32;;;;;;;0.40;0.40;;;;;;;;;;5057247;28;20116;-82
2022/08/07 11:32:00;;;;;;;0.60;0.60;;;;;;;;;;5038897;28;20104;-82
2022/08/07 11:34:38;;;;;;;1.35;0.55;;;;;;;;;;5058038;28;20033;-81
2022/08/07 11:37:17;;;;;;;2.72;0.57;;;;;;;;;;5051161;28;20005;-83
2022/08/07 11:40:09;;;;;;;1.23;0.77;;;;;;;;;;5058266;28;20022;-83
2022/08/07 11:42:57;;;;;;;0.77;0.77;;;;;;;;;;5043550;28;20048;-84
2022/08/07 11:45:50;;;;;;;1.33;0.70;;;;;;;;;;5039053;28;20026;-83
2022/08/07 11:48:33;;;;;;;4.57;0.60;;;;;;;;;;5037695;28;20476;-83
2022/08/07 11:51:07;;;;;;;0.88;0.60;;;;;;;;;;5036623;28;20480;-84
2022/08/07 11:53:44;;;;;;;0.70;0.52;;;;;;;;;;5038446;28;20030;-83
2022/08/07 11:56:17;;;;;;;0.85;0.52;;;;;;;;;;5038745;28;20025;-84
2022/08/07 11:58:55;;;;;;;0.82;0.70;;;;;;;;;;5036426;28;20064;-83
2022/08/07 12:01:30;;;;;;;0.80;0.75;;;;;;;;;;5037389;28;20109;-84
2022/08/07 12:04:09;;;;;;;0.82;0.70;;;;;;;;;;5037624;28;20100;-84
2022/08/07 12:06:47;;;;;;;0.85;0.73;;;;;;;;;;5020330;28;20036;-82
2022/08/07 12:09:21;;;;;;;0.80;0.80;;;;;;;;;;5037338;28;20032;-83
2022/08/07 12:11:56;;;;;;;0.60;0.60;;;;;;;;;;5048267;28;20028;-83
2022/08/07 12:14:26;;;;;;;1.23;0.60;;;;;;;;;;5039046;28;20074;-83
2022/08/07 12:17:03;;;;;;;1.08;0.40;;;;;;;;;;5023990;28;20113;-84
2022/08/07 12:19:35;;;;;;;0.75;0.73;;;;;;;;;;5037054;28;20030;-84
2022/08/07 12:22:13;;;;;;;;;;;;;;;;;;5037562;28;20035;-84
2022/08/07 12:27:47;;;;;;;0.57;0.40;;;;;;;;;;5040762;28;20040;-84
2022/08/07 12:30:13;;;;;;;1.52;0.77;;;;;;;;;;5039756;28;20013;-83
2022/08/07 12:33:04;;;;;;;0.52;0.52;;;;;;;;;;5035723;28;20387;-84
2022/08/07 12:35:33;;;;;;;1.08;0.80;;;;;;;;;;5039256;28;20041;-84
2022/08/07 12:37:59;;;;;;;0.70;0.43;;;;;;;;;;5018833;28;20021;-83
2022/08/07 12:40:28;;;;;;;0.50;0.47;;;;;;;;;;5038213;28;20021;-83
2022/08/07 12:42:58;;;;;;;1.40;0.73;;;;;;;;;;5037708;28;20022;-83
2022/08/07 12:45:32;;;;;;;0.68;0.68;;;;;;;;;;5036797;28;20631;-84
2022/08/07 12:48:12;;;;;;;0.70;0.70;;;;;;;;;;5036199;28;20025;-84
2022/08/07 12:50:56;;;;;;;1.75;0.95;;;;;;;;;;5035632;28;20470;-84
2022/08/07 12:53:39;;;;;;;0.52;0.52;;;;;;;;;;5036953;28;20025;-83
2022/08/07 12:56:08;;;;;;;0.75;0.73;;;;;;;;;;5037380;28;20103;-84
2022/08/07 12:58:40;;;;;;;1.20;0.90;;;;;;;;;;5035464;28;20021;-84
2022/08/07 13:01:54;;;;;;;3.08;1.00;;;;;;;;;;5036703;28;20510;-84
2022/08/07 13:04:49;;;;;;;0.68;0.50;;;;;;;;;;5001646;28;20431;-84
2022/08/07 13:07:36;;;;;;;3.33;0.95;;;;;;;;;;5030800;28;20451;-84
2022/08/07 13:10:33;;;;;;;0.77;0.60;;;;;;;;;;5035493;28;20024;-83
2022/08/07 13:13:39;;;;;;;0.93;0.75;;;;;;;;;;5016765;28;20026;-84
2022/08/07 13:16:36;;;;;;;0.73;0.57;;;;;;;;;;4983243;28;20034;-82
2022/08/07 13:19:19;;;;;;;0.60;0.60;;;;;;;;;;5008021;28;20034;-83
2022/08/07 13:21:53;;;;;;;1.45;0.63;;;;;;;;;;5015729;28;20117;-82
2022/08/07 13:24:24;;;;;;;1.08;1.00;;;;;;;;;;5029422;28;20074;-83
2022/08/07 13:27:09;;;;;;;3.63;0.77;;;;;;;;;;5035471;28;20454;-83
2022/08/07 13:29:48;;;;;;;0.98;0.60;;;;;;;;;;5035192;28;20074;-84
2022/08/07 13:32:22;;;;;;;1.38;0.85;;;;;;;;;;5018283;28;20029;-82
2022/08/07 13:35:11;;;;;;;0.70;0.60;;;;;;;;;;5036363;28;20021;-83
2022/08/07 13:38:02;;;;;;;0.93;0.90;;;;;;;;;;5035533;28;20036;-84
2022/08/07 13:40:36;;;;;;;0.77;0.65;;;;;;;;;;5036342;28;20029;-83
2022/08/07 13:43:05;;;;;;;0.60;0.60;;;;;;;;;;5036482;28;20030;-83
2022/08/07 13:45:33;;;;;;;0.82;0.82;;;;;;;;;;5034680;28;20053;-83
2022/08/07 13:48:01;;;;;;;0.75;0.70;;;;;;;;;;5038185;28;20040;-83
2022/08/07 13:50:29;;;;;;;1.67;0.50;;;;;;;;;;5039300;28;20040;-84
2022/08/07 13:52:57;;;;;;;1.55;0.82;;;;;;;;;;5038473;28;20383;-83
2022/08/07 13:55:23;;;;;;;2.15;0.80;;;;;;;;;;5037130;28;20053;-83
2022/08/07 13:57:57;;;;;;;1.67;0.80;;;;;;;;;;5039553;28;20619;-82
2022/08/07 14:00:33;;;;;;;1.27;0.80;;;;;;;;;;5038873;28;20029;-84
2022/08/07 14:03:00;;;;;;;0.65;0.65;;;;;;;;;;5039041;28;20044;-83
2022/08/07 14:05:26;;;;;;;0.95;0.73;;;;;;;;;;5040724;28;20025;-82
2022/08/07 14:07:53;;;;;;;0.70;0.70;;;;;;;;;;5040778;28;20037;-83
2022/08/07 14:10:18;;;;;;;4.15;0.90;;;;;;;;;;5038938;28;20013;-83
2022/08/07 14:12:57;;;;;;;1.05;0.70;;;;;;;;;;5042560;28;20511;-82
2022/08/07 14:15:38;;;;;;;0.70;0.60;;;;;;;;;;5040702;28;20026;-82
2022/08/07 14:18:52;;;;;;;0.85;0.60;;;;;;;;;;5040938;28;20033;-83
2022/08/07 14:21:25;;;;;;;3.05;1.02;;;;;;;;;;5033665;28;20040;-83
2022/08/07 14:24:28;;;;;;;1.58;0.70;;;;;;;;;;5036689;28;20056;-83
2022/08/07 14:27:01;;;;;;;0.82;0.73;;;;;;;;;;5031857;28;20038;-83
2022/08/07 14:29:31;;;;;;;1.17;0.90;;;;;;;;;;5045152;28;20033;-85
2022/08/07 14:32:03;;;;;;;2.05;0.70;;;;;;;;;;5030869;28;20022;-84
2022/08/07 14:34:31;;;;;;;0.38;0.38;;;;;;;;;;5043690;28;20025;-84
2022/08/07 14:37:00;;;;;;;0.73;0.65;;;;;;;;;;5041210;28;20507;-85
2022/08/07 14:39:26;;;;;;;0.85;0.70;;;;;;;;;;5041127;28;20021;-84
2022/08/07 14:41:52;;;;;;;0.55;0.43;;;;;;;;;;5024240;28;20022;-84
2022/08/07 14:44:19;;;;;;;1.63;0.80;;;;;;;;;;5040281;28;20049;-84
2022/08/07 14:46:45;;;;;;;0.80;0.80;;;;;;;;;;5040062;28;20052;-85
2022/08/07 14:49:12;;;;;;;5.05;0.88;;;;;;;;;;5042852;28;20029;-84
2022/08/07 14:51:41;;;;;;;1.00;0.90;;;;;;;;;;5044717;28;20056;-84
2022/08/07 14:54:09;;;;;;;0.70;0.70;;;;;;;;;;5043820;28;20033;-84
2022/08/07 14:56:40;;;;;;;0.85;0.68;;;;;;;;;;5024818;28;20399;-84
2022/08/07 14:59:09;;;;;;;1.50;0.85;;;;;;;;;;5042317;28;20024;-84
2022/08/07 15:01:38;;;;;;;0.80;0.80;;;;;;;;;;5040810;28;20129;-84
2022/08/07 15:04:05;;;;;;;0.70;0.70;;;;;;;;;;5043208;28;20110;-83
2022/08/07 15:06:33;;;;;;;1.23;0.90;;;;;;;;;;5043408;28;20099;-83
2022/08/07 15:09:04;;;;;;;0.50;0.50;;;;;;;;;;5043722;28;20079;-84
2022/08/07 15:11:35;;;;;;;1.10;0.80;;;;;;;;;;5053221;28;20025;-83
2022/08/07 15:14:06;;;;;;;0.50;0.50;;;;;;;;;;5045797;28;20032;-84
2022/08/07 15:16:43;;;;;;;0.68;0.68;;;;;;;;;;5045197;28;20052;-84
2022/08/07 15:19:14;;;;;;;3.60;0.90;;;;;;;;;;5063874;28;20029;-84
2022/08/07 15:21:43;;;;;;;1.08;0.98;;;;;;;;;;5045509;28;20035;-83